Time,TemperatureF,DewpointF,PressureIn,WindDirection,WindDirectionDegrees,WindSpeedMPH,WindSpeedGustMPH,Humidity,HourlyPrecipIn,Conditions,Clouds,dailyrainin,SolarRadiationWatts/m^2,SoftwareType,DateUTC
2013-01-16 00:02:00,10.0,1.0,-100.00,SE,140,3.0,4.0,67,0.00,,,0.06,0.000000,,2013-01-16 07:02:00,
2013-01-16 00:12:00,10.0,1.0,-100.00,SE,140,3.0,4.0,67,0.00,,,0.06,0.000000,,2013-01-16 07:12:00,
2013-01-16 00:22:00,10.0,1.0,-100.00,SE,140,3.0,4.0,67,0.00,,,0.06,0.000000,,2013-01-16 07:22:00,
2013-01-16 00:33:00,10.0,1.0,-100.00,SE,140,3.0,4.0,67,0.00,,,0.06,0.000000,,2013-01-16 07:33:00,
2013-01-16 00:42:00,8.0,2.0,-100.00,SSW,207,0.0,3.0,76,0.00,,,0.06,0.000000,,2013-01-16 07:42:00,
2013-01-16 01:02:00,8.0,2.0,-100.00,SSW,207,0.0,3.0,76,0.00,,,0.06,0.000000,,2013-01-16 08:02:00,
2013-01-16 01:12:00,8.0,2.0,-100.00,SSW,207,0.0,3.0,76,0.00,,,0.06,0.000000,,2013-01-16 08:12:00,
2013-01-16 01:22:00,8.0,2.0,-100.00,SSW,207,0.0,3.0,76,0.00,,,0.06,0.000000,,2013-01-16 08:22:00,
2013-01-16 01:32:00,8.0,2.0,-100.00,SSW,207,0.0,3.0,76,0.00,,,0.06,0.000000,,2013-01-16 08:32:00,
2013-01-16 01:42:00,7.0,0.0,-100.00,ENE,70,1.0,2.0,73,0.00,,,0.06,0.000000,,2013-01-16 08:42:00,
2013-01-16 02:02:00,7.0,0.0,-100.00,ENE,70,1.0,2.0,73,0.00,,,0.06,0.000000,,2013-01-16 09:02:00,
2013-01-16 02:12:00,7.0,0.0,-100.00,ENE,70,1.0,2.0,73,0.00,,,0.06,0.000000,,2013-01-16 09:12:00,
2013-01-16 02:22:00,7.0,0.0,-100.00,ENE,70,1.0,2.0,73,0.00,,,0.06,0.000000,,2013-01-16 09:22:00,
2013-01-16 02:32:00,7.0,0.0,-100.00,ENE,70,1.0,2.0,73,0.00,,,0.06,0.000000,,2013-01-16 09:32:00,
2013-01-16 02:42:00,5.0,0.0,-100.00,NW,319,1.0,4.0,80,0.00,,,0.06,0.000000,,2013-01-16 09:42:00,
2013-01-16 03:02:00,5.0,0.0,-100.00,NW,319,1.0,4.0,80,0.00,,,0.06,0.000000,,2013-01-16 10:02:00,
2013-01-16 03:12:00,5.0,0.0,-100.00,NW,319,1.0,4.0,80,0.00,,,0.06,0.000000,,2013-01-16 10:12:00,
2013-01-16 03:22:00,5.0,0.0,-100.00,NW,319,1.0,4.0,80,0.00,,,0.06,0.000000,,2013-01-16 10:22:00,
2013-01-16 03:32:00,5.0,0.0,-100.00,NW,319,1.0,4.0,80,0.00,,,0.06,0.000000,,2013-01-16 10:32:00,
2013-01-16 03:42:00,4.0,0.0,-100.00,SSE,151,1.0,5.0,82,0.00,,,0.06,0.000000,,2013-01-16 10:42:00,
2013-01-16 04:02:00,4.0,0.0,-100.00,SSE,151,1.0,5.0,82,0.00,,,0.06,0.000000,,2013-01-16 11:02:00,
2013-01-16 04:12:00,4.0,0.0,-100.00,SSE,151,1.0,5.0,82,0.00,,,0.06,0.000000,,2013-01-16 11:12:00,
2013-01-16 04:22:00,4.0,0.0,-100.00,SSE,151,1.0,5.0,82,0.00,,,0.06,0.000000,,2013-01-16 11:22:00,
2013-01-16 04:32:00,4.0,0.0,-100.00,SSE,151,1.0,5.0,82,0.00,,,0.06,0.000000,,2013-01-16 11:32:00,
2013-01-16 04:42:00,3.0,-2.0,-100.00,East,90,1.0,3.0,79,0.00,,,0.06,0.000000,,2013-01-16 11:42:00,
2013-01-16 05:03:00,3.0,-2.0,-100.00,East,90,1.0,3.0,79,0.00,,,0.06,0.000000,,2013-01-16 12:03:00,
2013-01-16 05:13:00,3.0,-2.0,-100.00,East,90,1.0,3.0,79,0.00,,,0.06,0.000000,,2013-01-16 12:13:00,
2013-01-16 05:22:00,3.0,-2.0,-100.00,East,90,1.0,3.0,79,0.00,,,0.06,0.000000,,2013-01-16 12:22:00,
2013-01-16 05:33:00,3.0,-2.0,-100.00,East,90,1.0,3.0,79,0.00,,,0.06,0.000000,,2013-01-16 12:33:00,
2013-01-16 05:42:00,3.0,-3.0,-100.00,NE,52,2.0,4.0,77,0.00,,,0.06,0.000000,,2013-01-16 12:42:00,
2013-01-16 06:03:00,3.0,-3.0,-100.00,NE,52,2.0,4.0,77,0.00,,,0.06,0.000000,,2013-01-16 13:03:00,
2013-01-16 06:12:00,3.0,-3.0,-100.00,NE,52,2.0,4.0,77,0.00,,,0.06,0.000000,,2013-01-16 13:12:00,
2013-01-16 06:22:00,3.0,-3.0,-100.00,NE,52,2.0,4.0,77,0.00,,,0.06,0.000000,,2013-01-16 13:22:00,
2013-01-16 06:33:00,3.0,-3.0,-100.00,NE,52,2.0,4.0,77,0.00,,,0.06,0.000000,,2013-01-16 13:33:00,
2013-01-16 06:42:00,2.0,-3.0,-100.00,NNE,13,1.0,3.0,78,0.00,,,0.06,0.000000,,2013-01-16 13:42:00,
2013-01-16 07:03:00,2.0,-3.0,-100.00,NNE,13,1.0,3.0,78,0.00,,,0.06,0.000000,,2013-01-16 14:03:00,
2013-01-16 07:12:00,2.0,-3.0,-100.00,NNE,13,1.0,3.0,78,0.00,,,0.06,0.000000,,2013-01-16 14:12:00,
2013-01-16 07:23:00,2.0,-3.0,-100.00,NNE,13,1.0,3.0,78,0.00,,,0.06,0.000000,,2013-01-16 14:23:00,
2013-01-16 07:33:00,2.0,-3.0,-100.00,NNE,13,1.0,3.0,78,0.00,,,0.06,0.000000,,2013-01-16 14:33:00,
2013-01-16 07:42:00,3.0,-2.0,-100.00,NE,48,1.0,3.0,78,0.00,,,0.06,1.000000,,2013-01-16 14:42:00,
2013-01-16 08:03:00,3.0,-2.0,-100.00,NE,48,1.0,3.0,78,0.00,,,0.06,1.000000,,2013-01-16 15:03:00,
2013-01-16 08:12:00,3.0,-2.0,-100.00,NE,48,1.0,3.0,78,0.00,,,0.06,1.000000,,2013-01-16 15:12:00,
2013-01-16 08:23:00,3.0,-2.0,-100.00,NE,48,1.0,3.0,78,0.00,,,0.06,1.000000,,2013-01-16 15:23:00,
2013-01-16 08:33:00,3.0,-2.0,-100.00,NE,48,1.0,3.0,78,0.00,,,0.06,1.000000,,2013-01-16 15:33:00,
2013-01-16 08:42:00,10.0,4.0,-100.00,ENE,61,1.0,3.0,76,0.00,,,0.06,22.000000,,2013-01-16 15:42:00,
2013-01-16 09:12:00,10.0,4.0,-100.00,ENE,61,1.0,3.0,76,0.00,,,0.06,22.000000,,2013-01-16 16:12:00,
2013-01-16 09:22:00,10.0,4.0,-100.00,ENE,61,1.0,3.0,76,0.00,,,0.06,22.000000,,2013-01-16 16:22:00,
2013-01-16 09:33:00,10.0,4.0,-100.00,ENE,61,1.0,3.0,76,0.00,,,0.06,22.000000,,2013-01-16 16:33:00,
2013-01-16 09:42:00,17.0,5.0,-100.00,West,279,2.0,4.0,59,0.00,,,0.06,61.000000,,2013-01-16 16:42:00,
2013-01-16 10:03:00,17.0,5.0,-100.00,West,279,2.0,4.0,59,0.00,,,0.06,61.000000,,2013-01-16 17:03:00,
2013-01-16 10:12:00,17.0,5.0,-100.00,West,279,2.0,4.0,59,0.00,,,0.06,61.000000,,2013-01-16 17:12:00,
2013-01-16 10:23:00,17.0,5.0,-100.00,West,279,2.0,4.0,59,0.00,,,0.06,61.000000,,2013-01-16 17:23:00,
2013-01-16 10:33:00,17.0,5.0,-100.00,West,279,2.0,4.0,59,0.00,,,0.06,61.000000,,2013-01-16 17:33:00,
2013-01-16 10:42:00,28.0,9.0,-100.00,NNE,31,2.0,4.0,45,0.00,,,0.05,246.000000,,2013-01-16 17:42:00,
2013-01-16 11:03:00,28.0,9.0,-100.00,NNE,31,2.0,4.0,45,0.00,,,0.05,246.000000,,2013-01-16 18:03:00,
2013-01-16 11:13:00,28.0,9.0,-100.00,NNE,31,2.0,4.0,45,0.00,,,0.05,246.000000,,2013-01-16 18:13:00,
2013-01-16 11:23:00,28.0,9.0,-100.00,NNE,31,2.0,4.0,45,0.00,,,0.05,246.000000,,2013-01-16 18:23:00,
2013-01-16 11:33:00,28.0,9.0,-100.00,NNE,31,2.0,4.0,45,0.00,,,0.05,246.000000,,2013-01-16 18:33:00,
2013-01-16 11:42:00,35.0,9.0,-100.00,North,353,2.0,5.0,34,0.00,,,0.03,493.000000,,2013-01-16 18:42:00,
2013-01-16 12:03:00,35.0,9.0,-100.00,North,353,2.0,5.0,34,0.00,,,0.03,493.000000,,2013-01-16 19:03:00,
2013-01-16 12:12:00,35.0,9.0,-100.00,North,353,2.0,5.0,34,0.00,,,0.03,493.000000,,2013-01-16 19:12:00,
2013-01-16 12:23:00,35.0,9.0,-100.00,North,353,2.0,5.0,34,0.00,,,0.03,493.000000,,2013-01-16 19:23:00,
2013-01-16 12:33:00,35.0,9.0,-100.00,North,353,2.0,5.0,34,0.00,,,0.03,493.000000,,2013-01-16 19:33:00,
2013-01-16 12:42:00,36.0,10.0,-100.00,East,86,3.0,5.0,34,0.00,,,0.00,635.000000,,2013-01-16 19:42:00,
2013-01-16 13:03:00,36.0,10.0,-100.00,East,86,3.0,5.0,34,0.00,,,0.00,635.000000,,2013-01-16 20:03:00,
2013-01-16 13:12:00,36.0,10.0,-100.00,East,86,3.0,5.0,34,0.00,,,0.00,635.000000,,2013-01-16 20:12:00,
2013-01-16 13:23:00,36.0,10.0,-100.00,East,86,3.0,5.0,34,0.00,,,0.00,635.000000,,2013-01-16 20:23:00,
2013-01-16 13:33:00,36.0,10.0,-100.00,East,86,3.0,5.0,34,0.00,,,0.00,635.000000,,2013-01-16 20:33:00,
2013-01-16 13:42:00,40.0,13.0,-100.00,NNW,341,2.0,6.0,33,0.00,,,0.00,586.000000,,2013-01-16 20:42:00,
2013-01-16 14:03:00,40.0,13.0,-100.00,NNW,341,2.0,6.0,33,0.00,,,0.00,586.000000,,2013-01-16 21:03:00,
2013-01-16 14:12:00,40.0,13.0,-100.00,NNW,341,2.0,6.0,33,0.00,,,0.00,586.000000,,2013-01-16 21:12:00,
2013-01-16 14:22:00,40.0,13.0,-100.00,NNW,341,2.0,6.0,33,0.00,,,0.00,586.000000,,2013-01-16 21:22:00,
2013-01-16 14:33:00,40.0,13.0,-100.00,NNW,341,2.0,6.0,33,0.00,,,0.00,586.000000,,2013-01-16 21:33:00,
2013-01-16 14:42:00,43.0,16.0,-100.00,NNE,24,2.0,7.0,33,0.00,,,0.00,502.000000,,2013-01-16 21:42:00,
2013-01-16 15:03:00,43.0,16.0,-100.00,NNE,24,2.0,7.0,33,0.00,,,0.00,502.000000,,2013-01-16 22:03:00,
2013-01-16 15:12:00,43.0,16.0,-100.00,NNE,24,2.0,7.0,33,0.00,,,0.00,502.000000,,2013-01-16 22:12:00,
2013-01-16 15:23:00,43.0,16.0,-100.00,NNE,24,2.0,7.0,33,0.00,,,0.00,502.000000,,2013-01-16 22:23:00,
2013-01-16 15:33:00,43.0,16.0,-100.00,NNE,24,2.0,7.0,33,0.00,,,0.00,502.000000,,2013-01-16 22:33:00,
2013-01-16 15:42:00,40.0,15.0,-100.00,NNW,340,3.0,8.0,36,0.00,,,0.00,237.000000,,2013-01-16 22:42:00,
2013-01-16 16:03:00,40.0,15.0,-100.00,NNW,340,3.0,8.0,36,0.00,,,0.00,237.000000,,2013-01-16 23:03:00,
2013-01-16 16:12:00,40.0,15.0,-100.00,NNW,340,3.0,8.0,36,0.00,,,0.00,237.000000,,2013-01-16 23:12:00,
2013-01-16 16:23:00,40.0,15.0,-100.00,NNW,340,3.0,8.0,36,0.00,,,0.00,237.000000,,2013-01-16 23:23:00,
2013-01-16 16:32:00,40.0,15.0,-100.00,NNW,340,3.0,8.0,36,0.00,,,0.00,237.000000,,2013-01-16 23:32:00,
2013-01-16 16:42:00,38.0,13.0,-100.00,NNW,328,3.0,6.0,36,0.00,,,0.00,55.000000,,2013-01-16 23:42:00,
2013-01-16 17:02:00,38.0,13.0,-100.00,NNW,328,3.0,6.0,36,0.00,,,0.00,55.000000,,2013-01-17 00:02:00,
2013-01-16 17:12:00,38.0,13.0,-100.00,NNW,328,3.0,6.0,36,0.00,,,0.00,55.000000,,2013-01-17 00:12:00,
2013-01-16 17:22:00,38.0,13.0,-100.00,NNW,328,3.0,6.0,36,0.00,,,0.00,55.000000,,2013-01-17 00:22:00,
2013-01-16 17:32:00,38.0,13.0,-100.00,NNW,328,3.0,6.0,36,0.00,,,0.00,55.000000,,2013-01-17 00:32:00,
2013-01-16 17:42:00,32.0,12.0,-100.00,NE,38,2.0,5.0,42,0.00,,,0.00,10.000000,,2013-01-17 00:42:00,
2013-01-16 18:02:00,32.0,12.0,-100.00,NE,38,2.0,5.0,42,0.00,,,0.00,10.000000,,2013-01-17 01:02:00,
2013-01-16 18:12:00,32.0,12.0,-100.00,NE,38,2.0,5.0,42,0.00,,,0.00,10.000000,,2013-01-17 01:12:00,
2013-01-16 18:22:00,32.0,12.0,-100.00,NE,38,2.0,5.0,42,0.00,,,0.00,10.000000,,2013-01-17 01:22:00,
2013-01-16 18:33:00,32.0,12.0,-100.00,NE,38,2.0,5.0,42,0.00,,,0.00,10.000000,,2013-01-17 01:33:00,
2013-01-16 18:42:00,29.0,10.0,-100.00,East,94,1.0,5.0,44,0.00,,,0.00,0.000000,,2013-01-17 01:42:00,
2013-01-16 19:02:00,29.0,10.0,-100.00,East,94,1.0,5.0,44,0.00,,,0.00,0.000000,,2013-01-17 02:02:00,
2013-01-16 19:12:00,29.0,10.0,-100.00,East,94,1.0,5.0,44,0.00,,,0.00,0.000000,,2013-01-17 02:12:00,
2013-01-16 19:22:00,29.0,10.0,-100.00,East,94,1.0,5.0,44,0.00,,,0.00,0.000000,,2013-01-17 02:22:00,
2013-01-16 19:32:00,29.0,10.0,-100.00,East,94,1.0,5.0,44,0.00,,,0.00,0.000000,,2013-01-17 02:32:00,
2013-01-16 19:42:00,24.0,16.0,-100.00,NE,49,1.0,3.0,70,0.00,,,0.00,0.000000,,2013-01-17 02:42:00,
2013-01-16 20:03:00,24.0,16.0,-100.00,NE,49,1.0,3.0,70,0.00,,,0.00,0.000000,,2013-01-17 03:03:00,
2013-01-16 20:12:00,24.0,16.0,-100.00,NE,49,1.0,3.0,70,0.00,,,0.00,0.000000,,2013-01-17 03:12:00,
2013-01-16 20:22:00,24.0,16.0,-100.00,NE,49,1.0,3.0,70,0.00,,,0.00,0.000000,,2013-01-17 03:22:00,
2013-01-16 20:32:00,24.0,16.0,-100.00,NE,49,1.0,3.0,70,0.00,,,0.00,0.000000,,2013-01-17 03:32:00,
2013-01-16 20:42:00,21.0,14.0,-100.00,NW,314,0.0,2.0,75,0.00,,,0.00,0.000000,,2013-01-17 03:42:00,
2013-01-16 21:02:00,21.0,14.0,-100.00,NW,314,0.0,2.0,75,0.00,,,0.00,0.000000,,2013-01-17 04:02:00,
2013-01-16 21:12:00,21.0,14.0,-100.00,NW,314,0.0,2.0,75,0.00,,,0.00,0.000000,,2013-01-17 04:12:00,
2013-01-16 21:22:00,21.0,14.0,-100.00,NW,314,0.0,2.0,75,0.00,,,0.00,0.000000,,2013-01-17 04:22:00,
2013-01-16 21:32:00,21.0,14.0,-100.00,NW,314,0.0,2.0,75,0.00,,,0.00,0.000000,,2013-01-17 04:32:00,
2013-01-16 21:42:00,18.0,13.0,-100.00,NNE,14,2.0,5.0,81,0.00,,,0.00,0.000000,,2013-01-17 04:42:00,
2013-01-16 22:04:00,18.0,13.0,-100.00,NNE,14,2.0,5.0,81,0.00,,,0.00,0.000000,,2013-01-17 05:04:00,
2013-01-16 22:12:00,18.0,13.0,-100.00,NNE,14,2.0,5.0,81,0.00,,,0.00,0.000000,,2013-01-17 05:12:00,
2013-01-16 22:22:00,18.0,13.0,-100.00,NNE,14,2.0,5.0,81,0.00,,,0.00,0.000000,,2013-01-17 05:22:00,
2013-01-16 22:33:00,18.0,13.0,-100.00,NNE,14,2.0,5.0,81,0.00,,,0.00,0.000000,,2013-01-17 05:33:00,
2013-01-16 22:42:00,20.0,12.0,-100.00,North,355,1.0,5.0,71,0.00,,,0.00,0.000000,,2013-01-17 05:42:00,
2013-01-16 23:02:00,20.0,12.0,-100.00,North,355,1.0,5.0,71,0.00,,,0.00,0.000000,,2013-01-17 06:02:00,
2013-01-16 23:12:00,20.0,12.0,-100.00,North,355,1.0,5.0,71,0.00,,,0.00,0.000000,,2013-01-17 06:12:00,
2013-01-16 23:22:00,20.0,12.0,-100.00,North,355,1.0,5.0,71,0.00,,,0.00,0.000000,,2013-01-17 06:22:00,
2013-01-16 23:32:00,20.0,12.0,-100.00,North,355,1.0,5.0,71,0.00,,,0.00,0.000000,,2013-01-17 06:32:00,
2013-01-16 23:42:00,18.0,10.0,-100.00,North,349,0.0,4.0,70,0.00,,,0.00,0.000000,,2013-01-17 06:42:00,